createdAt,value
2023-02-13T00:00:19.976Z,19.80
2023-02-13T02:00:59.753Z,42.52
2023-02-13T02:01:44.764Z,51.27
2023-02-13T02:02:30.040Z,51.27
2023-02-13T02:03:14.552Z,51.27
2023-02-13T02:03:59.928Z,51.27
2023-02-13T02:04:44.765Z,51.27
2023-02-13T02:05:29.626Z,51.27
2023-02-13T02:06:17.366Z,51.27
2023-02-13T02:07:05.472Z,51.27
2023-02-13T02:07:50.692Z,51.27
2023-02-13T02:08:35.685Z,51.27
2023-02-13T02:09:22.700Z,51.27
2023-02-13T02:10:06.016Z,51.27
2023-02-13T02:10:50.880Z,51.27
2023-02-13T02:11:32.399Z,57.18
2023-02-13T02:12:15.168Z,20.77
2023-02-13T02:13:00.237Z,9.86
2023-02-13T02:13:45.627Z,52.41
2023-02-13T02:14:30.546Z,45.49
2023-02-13T02:15:16.330Z,19.72
2023-02-13T02:16:00.430Z,18.79
2023-02-13T02:16:45.580Z,16.81
2023-02-13T02:17:29.994Z,43.51
2023-02-13T02:18:15.712Z,30.56
2023-02-13T02:19:01.037Z,28.68
2023-02-13T02:19:46.882Z,32.63
2023-02-13T02:20:30.351Z,20.77
2023-02-13T02:21:15.719Z,14.83
2023-02-13T02:22:00.772Z,11.87
2023-02-13T02:22:46.157Z,11.87
2023-02-13T02:23:30.907Z,11.88
2023-02-13T02:24:15.992Z,29.70
2023-02-13T02:25:00.653Z,49.51
2023-02-13T02:25:46.358Z,48.52
2023-02-13T02:26:30.796Z,65.35
2023-02-13T02:27:16.065Z,52.48
2023-02-13T02:28:01.425Z,49.51
2023-02-13T02:28:46.497Z,49.51
2023-02-13T02:29:31.345Z,56.44
2023-02-13T02:30:18.506Z,56.44
2023-02-13T02:31:01.474Z,57.43
2023-02-13T02:31:46.642Z,54.46
2023-02-13T02:32:31.034Z,55.30
2023-02-13T02:33:16.512Z,51.49
2023-02-13T02:34:01.805Z,51.49
2023-02-13T02:34:46.624Z,48.52
2023-02-13T02:35:31.990Z,50.50
2023-02-13T02:36:17.025Z,50.50
2023-02-13T02:37:02.530Z,50.50
2023-02-13T02:37:47.466Z,64.43
2023-02-13T02:38:32.123Z,69.39
2023-02-13T02:39:17.137Z,68.40
2023-02-13T02:40:02.124Z,66.42
2023-02-13T02:40:47.009Z,70.21
2023-02-13T02:41:31.778Z,69.39
2023-02-13T02:42:17.073Z,67.41
2023-02-13T02:43:02.143Z,72.36
2023-02-13T02:43:47.618Z,75.42
2023-02-13T02:44:31.869Z,65.49
2023-02-13T02:45:17.687Z,65.49
2023-02-13T02:46:02.810Z,65.49
2023-02-13T02:46:47.649Z,65.49
2023-02-13T02:47:32.685Z,65.49
2023-02-13T02:48:17.761Z,65.49
2023-02-13T02:49:02.978Z,65.49
2023-02-13T02:49:47.654Z,65.49
2023-02-13T02:50:33.095Z,65.49
2023-02-13T02:51:17.882Z,65.49
2023-02-13T02:52:03.235Z,65.49
2023-02-13T02:52:48.322Z,65.49
2023-02-13T02:53:33.706Z,65.49
2023-02-13T02:54:18.122Z,65.49
2023-02-13T02:55:03.453Z,65.49
2023-02-13T02:55:48.729Z,65.49
2023-02-13T02:56:33.388Z,65.49
2023-02-13T02:57:18.148Z,65.49
2023-02-13T02:58:03.473Z,65.49
2023-02-13T02:58:49.130Z,65.49
2023-02-13T02:59:33.882Z,65.49
2023-02-13T03:00:19.356Z,65.49
2023-02-13T03:01:03.903Z,65.49
2023-02-13T03:01:49.725Z,65.49
2023-02-13T03:02:34.013Z,65.49
2023-02-13T03:03:19.018Z,65.49
2023-02-13T03:04:04.357Z,65.49
2023-02-13T03:04:49.286Z,65.49
2023-02-13T03:05:34.307Z,65.49
2023-02-13T03:06:19.633Z,65.49
2023-02-13T03:07:04.148Z,65.49
2023-02-13T03:07:49.348Z,65.49
2023-02-13T03:08:34.519Z,65.49
2023-02-13T03:09:19.533Z,65.49
2023-02-13T03:10:04.818Z,65.49
2023-02-13T03:10:49.331Z,76.60
2023-02-13T03:11:34.482Z,84.56
2023-02-13T03:12:19.515Z,88.32
2023-02-13T03:13:04.612Z,86.55
2023-02-13T03:13:49.628Z,79.59
2023-02-13T03:14:34.887Z,79.59
2023-02-13T03:15:19.469Z,72.62
2023-02-13T03:16:04.591Z,58.70
2023-02-13T03:16:49.570Z,52.73
2023-02-13T03:17:34.762Z,63.67
2023-02-13T03:18:20.216Z,63.67
2023-02-13T03:19:04.948Z,63.67
2023-02-13T03:19:52.563Z,63.67
2023-02-13T03:20:39.085Z,63.67
2023-02-13T03:21:20.608Z,63.67
2023-02-13T03:22:06.844Z,63.67
2023-02-13T03:22:50.356Z,63.67
2023-02-13T03:23:36.220Z,63.67
2023-02-13T03:24:22.218Z,63.67
2023-02-13T03:25:07.595Z,63.67
2023-02-13T03:25:50.366Z,63.67
2023-02-13T03:26:35.532Z,63.67
2023-02-13T03:27:20.701Z,63.67
2023-02-13T03:28:05.788Z,63.67
2023-02-13T03:28:50.642Z,63.67
2023-02-13T03:29:35.634Z,63.67
2023-02-13T03:30:20.688Z,63.67
2023-02-13T03:31:05.623Z,63.67
2023-02-13T03:31:50.972Z,63.67
2023-02-13T03:32:35.673Z,63.67
2023-02-13T03:33:21.212Z,63.67
2023-02-13T03:34:06.568Z,63.67
2023-02-13T03:34:52.871Z,63.67
2023-02-13T03:35:35.780Z,63.67
2023-02-13T03:36:20.938Z,63.67
2023-02-13T03:37:05.995Z,63.67
2023-02-13T03:37:51.426Z,63.67
2023-02-13T03:38:36.217Z,63.67
2023-02-13T03:39:21.186Z,63.67
2023-02-13T03:40:07.409Z,63.67
2023-02-13T03:40:51.488Z,63.67
2023-02-13T03:41:36.438Z,63.67
2023-02-13T03:42:22.412Z,63.67
2023-02-13T03:43:06.749Z,63.67
2023-02-13T03:43:51.370Z,63.67
2023-02-13T03:44:38.882Z,63.67
2023-02-13T03:45:21.471Z,63.67
2023-02-13T03:46:06.704Z,63.67
2023-02-13T03:46:51.727Z,63.67
2023-02-13T03:47:36.437Z,63.67
2023-02-13T03:48:21.944Z,63.67
2023-02-13T03:49:06.640Z,63.67
2023-02-13T03:49:51.892Z,63.67
2023-02-13T03:50:36.894Z,63.67
2023-02-13T03:51:23.953Z,63.67
2023-02-13T03:52:08.964Z,63.67
2023-02-13T03:52:51.866Z,8.26
2023-02-13T03:53:36.922Z,9.74
2023-02-13T03:54:22.291Z,9.74
2023-02-13T03:55:07.105Z,9.74
2023-02-13T03:55:52.483Z,9.74
2023-02-13T03:56:37.491Z,9.74
2023-02-13T03:57:22.321Z,9.74
2023-02-13T03:58:07.617Z,9.74
2023-02-13T03:58:52.754Z,9.74
2023-02-13T03:59:37.834Z,9.74
2023-02-13T04:00:22.433Z,9.74
2023-02-13T04:01:07.852Z,9.74
2023-02-13T04:01:52.580Z,9.74
2023-02-13T04:02:37.835Z,9.74
2023-02-13T04:03:22.867Z,9.74
2023-02-13T04:04:07.916Z,9.74
2023-02-13T04:04:54.398Z,9.74
2023-02-13T04:05:41.413Z,9.74
2023-02-13T04:06:23.158Z,9.74
2023-02-13T04:07:09.782Z,9.74
2023-02-13T04:07:53.308Z,9.74
2023-02-13T04:08:38.302Z,9.74
2023-02-13T04:09:23.823Z,9.74
2023-02-13T04:10:10.758Z,9.74
2023-02-13T04:10:55.508Z,9.74
2023-02-13T04:11:40.023Z,9.74
2023-02-13T04:12:27.246Z,9.74
2023-02-13T04:13:08.297Z,14.33
2023-02-13T04:13:53.454Z,21.67
2023-02-13T04:14:40.201Z,21.67
2023-02-13T04:15:23.616Z,21.67
2023-02-13T04:16:10.670Z,21.67
2023-02-13T04:16:55.047Z,21.67
2023-02-13T04:17:40.537Z,21.67
2023-02-13T04:18:25.356Z,21.67
2023-02-13T04:19:08.744Z,21.67
2023-02-13T04:19:56.031Z,21.67
2023-02-13T04:20:40.833Z,21.67
2023-02-13T04:21:25.659Z,21.67
2023-02-13T04:22:10.686Z,21.67
2023-02-13T04:22:58.103Z,21.67
2023-02-13T04:23:41.013Z,21.67
2023-02-13T04:24:23.832Z,10.59
2023-02-13T04:25:08.934Z,11.84
2023-02-13T04:25:54.189Z,11.84
2023-02-13T04:26:39.832Z,7.51
2023-02-13T04:27:24.274Z,7.51
2023-02-13T04:28:09.513Z,7.51
2023-02-13T04:28:57.957Z,7.51
2023-02-13T04:29:39.350Z,7.51
2023-02-13T04:30:26.922Z,7.51
2023-02-13T04:31:11.386Z,7.51
2023-02-13T04:31:54.396Z,8.89
2023-02-13T04:32:41.665Z,8.89
2023-02-13T04:33:25.022Z,8.89
2023-02-13T04:34:11.510Z,8.89
2023-02-13T04:34:56.411Z,10.96
2023-02-13T04:35:39.293Z,12.78
2023-02-13T04:36:26.838Z,12.78
2023-02-13T04:37:09.798Z,12.78
2023-02-13T04:37:56.942Z,12.78
2023-02-13T04:38:40.032Z,6.91
2023-02-13T04:39:25.104Z,6.91
2023-02-13T04:40:10.323Z,6.91
2023-02-13T04:40:55.570Z,6.91
2023-02-13T04:41:40.039Z,6.91
2023-02-13T04:42:25.252Z,6.91
2023-02-13T04:43:10.499Z,6.91
2023-02-13T04:43:55.460Z,6.91
2023-02-13T04:44:40.762Z,6.91
2023-02-13T04:45:25.632Z,6.91
2023-02-13T04:46:10.706Z,6.91
2023-02-13T04:46:55.629Z,6.91
2023-02-13T04:47:40.939Z,6.91
2023-02-13T04:48:25.794Z,6.91
2023-02-13T04:49:13.667Z,6.91
2023-02-13T04:49:55.541Z,12.17
2023-02-13T04:50:41.220Z,14.20
2023-02-13T04:51:25.963Z,14.20
2023-02-13T04:52:10.611Z,9.51
2023-02-13T04:52:55.699Z,12.49
2023-02-13T04:53:40.617Z,13.70
2023-02-13T04:54:25.693Z,14.86
2023-02-13T04:55:10.944Z,13.88
2023-02-13T04:55:56.849Z,16.58
2023-02-13T04:56:41.083Z,51.60
2023-02-13T04:57:26.425Z,18.82
2023-02-13T04:58:11.372Z,61.52
2023-02-13T04:58:56.067Z,49.62
2023-02-13T04:59:41.256Z,11.14
2023-02-13T05:00:26.335Z,62.52
2023-02-13T05:01:11.405Z,73.43
2023-02-13T05:01:56.668Z,75.42
2023-02-13T05:02:41.232Z,27.88
2023-02-13T05:03:26.459Z,105.19
2023-02-13T05:04:11.669Z,103.20
2023-02-13T05:04:56.839Z,107.17
2023-02-13T05:05:41.829Z,104.19
2023-02-13T05:06:26.900Z,47.82
2023-02-13T05:07:11.842Z,109.16
2023-02-13T05:07:56.967Z,109.16
2023-02-13T05:08:42.129Z,116.10
2023-02-13T05:09:26.930Z,117.09
2023-02-13T05:10:12.580Z,115.11
2023-02-13T05:10:57.857Z,116.10
2023-02-13T05:11:42.279Z,112.13
2023-02-13T05:12:27.598Z,113.87
2023-02-13T05:13:12.548Z,112.13
2023-02-13T05:13:57.452Z,113.13
2023-02-13T05:14:42.754Z,116.31
2023-02-13T05:15:27.909Z,112.33
2023-02-13T05:16:12.428Z,110.35
2023-02-13T05:16:57.732Z,44.77
2023-02-13T05:17:43.353Z,36.08
2023-02-13T05:18:27.725Z,115.32
2023-02-13T05:19:12.993Z,115.32
2023-02-13T05:19:57.650Z,114.32
2023-02-13T05:20:43.038Z,110.35
2023-02-13T05:21:28.532Z,113.33
2023-02-13T05:22:13.793Z,109.35
2023-02-13T05:22:57.866Z,109.35
2023-02-13T05:23:43.035Z,98.42
2023-02-13T05:24:28.090Z,98.42
2023-02-13T05:25:13.525Z,87.48
2023-02-13T05:25:57.854Z,74.56
2023-02-13T05:26:43.877Z,74.56
2023-02-13T05:27:28.582Z,74.56
2023-02-13T05:28:13.369Z,74.56
2023-02-13T05:28:58.943Z,74.56
2023-02-13T05:29:43.656Z,74.56
2023-02-13T05:30:28.850Z,74.56
2023-02-13T05:31:13.987Z,74.56
2023-02-13T05:31:59.462Z,74.56
2023-02-13T05:32:43.979Z,74.56
2023-02-13T05:33:29.041Z,74.56
2023-02-13T05:34:14.180Z,74.56
2023-02-13T05:34:59.148Z,74.56
2023-02-13T05:35:44.574Z,74.56
2023-02-13T05:36:31.292Z,74.56
2023-02-13T05:37:14.120Z,74.56
2023-02-13T05:37:59.273Z,74.56
2023-02-13T05:38:44.224Z,74.56
2023-02-13T05:39:29.194Z,74.56
2023-02-13T05:40:16.065Z,74.56
2023-02-13T05:40:59.395Z,74.56
2023-02-13T05:41:46.925Z,74.56
2023-02-13T05:42:29.278Z,2.24
2023-02-13T05:43:14.465Z,6.94
2023-02-13T05:43:59.531Z,3.80
2023-02-13T05:44:44.461Z,2.08
2023-02-13T05:45:29.644Z,3.19
2023-02-13T05:46:14.492Z,1.87
2023-02-13T05:47:02.786Z,1.87
2023-02-13T05:47:45.210Z,1.87
2023-02-13T05:48:31.773Z,1.87
2023-02-13T05:49:14.886Z,1.65
2023-02-13T05:49:59.943Z,2.83
2023-02-13T05:50:44.855Z,2.32
2023-02-13T05:51:29.971Z,2.83
2023-02-13T05:52:15.092Z,5.94
2023-02-13T05:53:00.151Z,5.94
2023-02-13T05:53:45.155Z,16.21
2023-02-13T05:54:30.197Z,10.91
2023-02-13T05:55:15.323Z,49.62
2023-02-13T05:56:00.488Z,50.61
2023-02-13T05:56:45.216Z,54.58
2023-02-13T05:57:30.622Z,57.43
2023-02-13T05:58:15.471Z,21.23
2023-02-13T05:59:00.872Z,48.62
2023-02-13T05:59:45.788Z,30.76
2023-02-13T06:00:31.647Z,6.75
2023-02-13T06:01:15.650Z,5.95
2023-02-13T06:02:00.595Z,6.40
2023-02-13T06:02:46.221Z,8.93
2023-02-13T06:03:31.730Z,3.97
2023-02-13T06:04:21.365Z,2.49
2023-02-13T06:05:01.724Z,2.49
2023-02-13T06:05:46.349Z,2.49
2023-02-13T06:06:31.299Z,2.49
2023-02-13T06:07:16.182Z,2.49
2023-02-13T06:08:01.406Z,2.49
2023-02-13T06:08:46.630Z,2.49
2023-02-13T06:09:31.343Z,2.49
2023-02-13T06:10:16.395Z,2.49
2023-02-13T06:11:01.758Z,2.49
2023-02-13T06:11:48.436Z,2.49
2023-02-13T06:12:31.340Z,2.49
2023-02-13T06:13:16.299Z,2.49
2023-02-13T06:14:03.408Z,2.49
2023-02-13T06:14:48.460Z,2.49
2023-02-13T06:15:35.460Z,3.54
2023-02-13T06:16:22.023Z,3.98
2023-02-13T06:17:01.778Z,3.98
2023-02-13T06:17:50.835Z,3.98
2023-02-13T06:18:37.318Z,3.98
2023-02-13T06:19:22.223Z,3.98
2023-02-13T06:20:07.498Z,3.98
2023-02-13T06:20:52.457Z,3.98
2023-02-13T06:21:37.439Z,3.98
2023-02-13T06:22:22.554Z,3.98
2023-02-13T06:23:08.033Z,3.98
2023-02-13T06:23:52.217Z,3.98
2023-02-13T06:24:35.308Z,3.98
2023-02-13T06:25:16.732Z,3.98
2023-02-13T06:26:01.737Z,3.98
2023-02-13T06:26:47.616Z,3.98
2023-02-13T06:27:32.424Z,3.98
2023-02-13T06:28:17.884Z,3.98
2023-02-13T06:29:06.921Z,3.98
2023-02-13T06:29:52.784Z,3.98
2023-02-13T06:30:37.874Z,3.98
2023-02-13T06:31:23.598Z,3.98
2023-02-13T06:32:08.232Z,3.98
2023-02-13T06:32:53.209Z,3.98
2023-02-13T06:33:38.487Z,3.98
2023-02-13T06:34:17.765Z,3.98
2023-02-13T06:35:07.448Z,3.98
2023-02-13T06:35:53.112Z,3.98
2023-02-13T06:36:38.460Z,3.98
2023-02-13T06:37:23.830Z,3.98
2023-02-13T06:38:08.292Z,3.98
2023-02-13T06:38:53.435Z,3.98
2023-02-13T06:39:39.025Z,3.98
2023-02-13T06:40:23.704Z,3.98
2023-02-13T06:41:08.705Z,3.98
2023-02-13T06:41:53.673Z,3.98
2023-02-13T06:42:38.784Z,3.98
2023-02-13T06:43:23.713Z,3.98
2023-02-13T06:44:08.724Z,3.98
2023-02-13T06:44:53.908Z,3.98
2023-02-13T06:45:38.946Z,3.98
2023-02-13T06:46:23.952Z,3.98
2023-02-13T06:47:08.665Z,3.98
2023-02-13T06:47:54.128Z,3.98
2023-02-13T06:48:39.184Z,3.98
2023-02-13T06:49:24.336Z,3.98
2023-02-13T06:50:10.476Z,3.98
2023-02-13T06:50:54.004Z,3.98
2023-02-13T06:51:39.388Z,3.98
2023-02-13T06:52:24.522Z,3.98
2023-02-13T06:53:09.459Z,3.98
2023-02-13T06:53:49.390Z,3.98
2023-02-13T06:54:46.199Z,3.98
2023-02-13T06:55:22.690Z,3.98
2023-02-13T06:56:10.038Z,3.98
2023-02-13T06:56:54.682Z,3.98
2023-02-13T06:57:39.432Z,3.98
2023-02-13T06:58:19.217Z,3.98
2023-02-13T06:59:04.823Z,3.98
2023-02-13T06:59:49.842Z,3.98
2023-02-13T07:00:38.269Z,3.98
2023-02-13T07:01:23.591Z,3.98
2023-02-13T07:02:04.122Z,3.98
2023-02-13T07:02:50.193Z,3.98
2023-02-13T07:03:34.621Z,3.98
2023-02-13T07:04:19.730Z,3.98
2023-02-13T07:05:08.771Z,3.98
2023-02-13T07:05:55.619Z,3.98
2023-02-13T07:06:40.526Z,3.98
2023-02-13T07:07:25.378Z,3.98
2023-02-13T07:08:09.924Z,3.98
2023-02-13T07:08:50.366Z,3.98
2023-02-13T07:09:34.939Z,3.98
2023-02-13T07:10:24.059Z,3.98
2023-02-13T07:11:10.448Z,3.98
2023-02-13T07:11:55.839Z,3.98
2023-02-13T07:12:40.770Z,3.98
2023-02-13T07:13:25.642Z,3.98
2023-02-13T07:14:10.293Z,3.98
2023-02-13T07:14:55.659Z,3.98
2023-02-13T07:15:40.789Z,3.98
2023-02-13T07:16:25.703Z,3.98
2023-02-13T07:17:10.812Z,3.98
2023-02-13T07:17:56.061Z,3.98
2023-02-13T07:18:41.225Z,3.98
2023-02-13T07:19:25.975Z,3.98
2023-02-13T07:20:05.609Z,3.98
2023-02-13T07:20:50.450Z,3.98
2023-02-13T07:21:39.697Z,3.98
2023-02-13T07:22:26.084Z,3.98
2023-02-13T07:23:11.393Z,3.98
2023-02-13T07:23:56.439Z,3.98
2023-02-13T07:24:41.167Z,3.98
2023-02-13T07:25:26.605Z,3.98
2023-02-13T07:26:11.430Z,3.98
2023-02-13T07:26:56.358Z,3.98
2023-02-13T07:27:41.689Z,3.98
2023-02-13T07:28:26.285Z,3.98
2023-02-13T07:29:12.370Z,3.98
2023-02-13T07:29:56.688Z,3.98
2023-02-13T07:30:41.900Z,3.98
2023-02-13T07:31:27.108Z,3.98
2023-02-13T07:32:09.610Z,3.98
2023-02-13T07:32:55.065Z,3.98
2023-02-13T07:33:41.056Z,3.98
2023-02-13T07:34:24.232Z,3.98
2023-02-13T07:35:11.239Z,3.98
2023-02-13T07:35:52.356Z,3.98
2023-02-13T07:36:37.274Z,3.98
2023-02-13T07:37:22.420Z,3.98
2023-02-13T07:38:12.021Z,3.98
2023-02-13T07:38:54.478Z,3.98
2023-02-13T07:39:41.895Z,3.98
2023-02-13T07:40:29.794Z,3.98
2023-02-13T07:41:12.616Z,3.98
2023-02-13T07:41:51.539Z,3.98
2023-02-13T07:42:36.822Z,3.98
2023-02-13T07:43:22.060Z,3.98
2023-02-13T07:44:06.913Z,3.98
2023-02-13T07:44:52.228Z,3.98
2023-02-13T07:45:36.807Z,3.98
2023-02-13T07:46:25.994Z,3.98
2023-02-13T07:47:07.246Z,3.98
2023-02-13T07:47:52.381Z,3.98
2023-02-13T07:48:38.880Z,3.98
2023-02-13T07:49:21.775Z,54.58
2023-02-13T07:50:06.999Z,54.58
2023-02-13T07:50:51.833Z,55.51
2023-02-13T07:51:36.999Z,61.46
2023-02-13T07:52:22.313Z,67.41
2023-02-13T07:53:07.365Z,26.76
2023-02-13T07:53:58.299Z,26.76
2023-02-13T07:54:39.591Z,26.76
2023-02-13T07:55:24.457Z,26.76
2023-02-13T07:56:07.500Z,26.76
2023-02-13T07:56:52.860Z,26.76
2023-02-13T07:57:37.744Z,26.76
2023-02-13T07:58:23.012Z,26.76
2023-02-13T07:59:08.265Z,26.76
2023-02-13T07:59:53.089Z,26.76
2023-02-13T08:00:38.157Z,50.56
2023-02-13T08:01:22.845Z,4.41
2023-02-13T08:02:08.016Z,4.41
2023-02-13T08:02:52.596Z,21.81
2023-02-13T08:03:38.084Z,2.39
2023-02-13T08:04:23.895Z,17.84
2023-02-13T08:05:07.981Z,12.89
2023-02-13T08:05:53.638Z,11.90
2023-02-13T08:06:37.784Z,14.87
2023-02-13T08:07:22.824Z,56.50
2023-02-13T08:08:08.228Z,67.41
2023-02-13T08:08:53.349Z,69.39
2023-02-13T08:09:38.967Z,68.40
2023-02-13T08:10:23.409Z,14.28
2023-02-13T08:11:08.280Z,73.36
2023-02-13T08:11:53.273Z,71.37
2023-02-13T08:12:38.495Z,80.29
2023-02-13T08:13:23.380Z,88.87
2023-02-13T08:14:08.869Z,86.24
2023-02-13T08:14:53.489Z,87.23
2023-02-13T08:15:38.940Z,85.25
2023-02-13T08:16:23.870Z,82.28
2023-02-13T08:17:08.815Z,84.26
2023-02-13T08:17:53.336Z,75.34
2023-02-13T08:18:38.786Z,72.36
2023-02-13T08:19:23.737Z,74.35
2023-02-13T08:20:10.078Z,75.34
2023-02-13T08:20:54.189Z,75.15
2023-02-13T08:21:39.230Z,71.37
2023-02-13T08:22:24.158Z,71.37
2023-02-13T08:23:08.890Z,75.34
2023-02-13T08:23:54.269Z,84.92
2023-02-13T08:24:39.670Z,82.28
2023-02-13T08:25:24.460Z,82.28
2023-02-13T08:26:09.282Z,81.29
2023-02-13T08:26:54.392Z,71.37
2023-02-13T08:27:39.525Z,10.44
2023-02-13T08:28:24.995Z,76.24
2023-02-13T08:29:09.658Z,61.39
2023-02-13T08:29:54.942Z,50.50
2023-02-13T08:30:39.738Z,48.39
2023-02-13T08:31:25.010Z,52.48
2023-02-13T08:32:09.831Z,52.48
2023-02-13T08:32:54.955Z,66.34
2023-02-13T08:33:39.964Z,64.36
2023-02-13T08:34:25.673Z,64.36
2023-02-13T08:35:10.549Z,60.47
2023-02-13T08:35:55.325Z,62.38
2023-02-13T08:36:40.228Z,61.39
2023-02-13T08:37:25.037Z,60.40
2023-02-13T08:38:11.023Z,82.18
2023-02-13T08:38:55.340Z,85.25
2023-02-13T08:39:40.586Z,86.24
2023-02-13T08:40:26.064Z,86.24
2023-02-13T08:41:10.643Z,85.25
2023-02-13T08:41:55.485Z,86.24
2023-02-13T08:42:40.580Z,87.23
2023-02-13T08:43:25.594Z,87.23
2023-02-13T08:44:10.536Z,86.14
2023-02-13T08:44:55.436Z,86.14
2023-02-13T08:45:41.122Z,86.14
2023-02-13T08:46:25.685Z,85.15
2023-02-13T08:47:10.764Z,84.16
2023-02-13T08:47:55.764Z,83.17
2023-02-13T08:48:41.055Z,81.19
2023-02-13T08:49:25.702Z,80.97
2023-02-13T08:50:10.924Z,80.20
2023-02-13T08:50:56.812Z,76.24
2023-02-13T08:51:40.898Z,77.23
2023-02-13T08:52:26.105Z,73.27
2023-02-13T08:53:11.636Z,79.21
2023-02-13T08:53:56.236Z,76.03
2023-02-13T08:54:41.378Z,76.24
2023-02-13T08:55:26.067Z,79.21
2023-02-13T08:57:54.459Z,69.31
2023-02-13T08:58:38.923Z,69.31
2023-02-13T08:59:24.546Z,90.10
2023-02-13T09:00:09.230Z,105.94
2023-02-13T09:00:54.416Z,106.93
2023-02-13T09:01:39.444Z,101.98
2023-02-13T09:02:24.529Z,92.08
2023-02-13T09:03:10.360Z,101.98
2023-02-13T09:03:54.743Z,101.98
2023-02-13T09:04:39.370Z,93.07
2023-02-13T09:05:24.419Z,89.11
2023-02-13T09:06:09.757Z,98.02
2023-02-13T09:06:54.962Z,81.19
2023-02-13T09:07:39.999Z,82.18
2023-02-13T09:08:24.541Z,89.86
2023-02-13T09:09:09.691Z,76.24
2023-02-13T09:09:54.756Z,82.95
2023-02-13T09:10:39.707Z,74.26
2023-02-13T09:11:24.657Z,77.02
2023-02-13T09:12:10.025Z,76.24
2023-02-13T09:12:54.912Z,80.20
2023-02-13T09:13:40.248Z,73.27
2023-02-13T09:14:25.164Z,72.08
2023-02-13T09:15:10.247Z,73.27
2023-02-13T09:15:55.427Z,73.27
2023-02-13T09:16:40.338Z,73.27
2023-02-13T09:17:25.013Z,80.97
2023-02-13T09:18:10.532Z,85.15
2023-02-13T09:18:55.329Z,85.15
2023-02-13T09:19:40.182Z,78.22
2023-02-13T09:20:25.553Z,81.19
2023-02-13T09:21:10.398Z,85.15
2023-02-13T09:21:55.640Z,85.15
2023-02-13T09:22:40.976Z,87.13
2023-02-13T09:23:25.748Z,85.15
2023-02-13T09:24:10.907Z,83.17
2023-02-13T09:24:55.495Z,85.15
2023-02-13T09:25:40.745Z,81.19
2023-02-13T09:26:26.307Z,84.16
2023-02-13T09:27:10.552Z,82.18
2023-02-13T09:27:56.449Z,67.33
2023-02-13T09:28:42.229Z,73.27
2023-02-13T09:29:25.710Z,69.31
2023-02-13T09:30:10.926Z,89.11
2023-02-13T09:30:55.910Z,88.87
2023-02-13T09:31:41.084Z,83.17
2023-02-13T09:32:26.144Z,73.27
2023-02-13T09:33:11.475Z,82.18
2023-02-13T09:33:56.265Z,80.97
2023-02-13T09:34:41.512Z,82.18
2023-02-13T09:35:26.262Z,77.02
2023-02-13T09:36:11.664Z,82.18
2023-02-13T09:36:56.197Z,86.90
2023-02-13T09:37:41.835Z,86.14
2023-02-13T09:38:26.488Z,86.14
2023-02-13T09:39:11.805Z,86.14
2023-02-13T09:39:56.604Z,87.13
2023-02-13T09:40:41.660Z,84.16
2023-02-13T09:41:26.731Z,66.34
2023-02-13T09:42:11.872Z,67.33
2023-02-13T09:42:56.621Z,67.33
2023-02-13T09:43:42.577Z,74.35
2023-02-13T09:44:26.854Z,75.15
2023-02-13T09:45:12.307Z,75.34
2023-02-13T09:45:57.491Z,79.30
2023-02-13T09:46:42.382Z,77.32
2023-02-13T09:47:27.070Z,81.29
2023-02-13T09:48:12.244Z,82.28
2023-02-13T09:48:57.381Z,76.14
2023-02-13T09:49:42.256Z,78.31
2023-02-13T09:50:27.606Z,75.34
2023-02-13T09:51:12.573Z,77.32
2023-02-13T09:51:58.342Z,77.32
2023-02-13T09:52:42.681Z,77.32
2023-02-13T09:53:27.327Z,65.42
2023-02-13T09:54:12.388Z,61.31
2023-02-13T09:54:57.523Z,64.50
2023-02-13T09:55:42.478Z,65.49
2023-02-13T09:56:27.750Z,65.49
2023-02-13T09:57:12.923Z,79.21
2023-02-13T09:57:58.238Z,84.35
2023-02-13T09:58:43.080Z,81.37
2023-02-13T09:59:27.719Z,82.36
2023-02-13T10:00:12.863Z,88.32
2023-02-13T10:00:58.567Z,88.32
2023-02-13T10:01:43.012Z,85.34
2023-02-13T10:02:28.325Z,85.34
2023-02-13T10:03:13.771Z,94.27
2023-02-13T10:03:59.123Z,94.27
2023-02-13T10:04:43.275Z,87.32
2023-02-13T10:05:28.566Z,88.32
2023-02-13T10:06:13.372Z,91.29
2023-02-13T10:06:58.652Z,93.28
2023-02-13T10:07:43.291Z,69.46
2023-02-13T10:08:29.030Z,30.76
2023-02-13T10:09:13.609Z,30.76
2023-02-13T10:09:59.159Z,50.61
2023-02-13T10:10:43.768Z,59.54
2023-02-13T10:11:28.899Z,62.52
2023-02-13T10:12:14.103Z,67.48
2023-02-13T10:12:58.896Z,61.52
2023-02-13T10:13:43.732Z,53.59
2023-02-13T10:14:29.163Z,64.36
2023-02-13T10:15:15.149Z,66.49
2023-02-13T10:15:59.632Z,62.52
2023-02-13T10:16:44.055Z,63.51
2023-02-13T10:17:28.946Z,62.52
2023-02-13T10:18:14.403Z,54.58
2023-02-13T10:19:00.016Z,40.69
2023-02-13T10:19:44.420Z,38.70
2023-02-13T10:20:29.237Z,35.72
2023-02-13T10:21:14.343Z,36.72
2023-02-13T10:21:59.464Z,38.70
2023-02-13T10:22:44.481Z,38.70
2023-02-13T10:23:29.521Z,32.75
2023-02-13T10:24:14.623Z,29.70
2023-02-13T10:24:59.585Z,31.75
2023-02-13T10:25:44.531Z,22.82
2023-02-13T10:26:30.027Z,26.79
2023-02-13T10:27:14.444Z,20.88
2023-02-13T10:27:59.571Z,18.85
2023-02-13T10:28:44.728Z,21.83
2023-02-13T10:29:29.821Z,28.83
2023-02-13T10:30:14.924Z,23.86
2023-02-13T10:31:00.305Z,23.86
2023-02-13T10:31:44.835Z,34.79
2023-02-13T10:32:30.314Z,34.79
2023-02-13T10:33:14.644Z,25.85
2023-02-13T10:34:00.274Z,22.82
2023-02-13T10:34:45.529Z,22.82
2023-02-13T10:35:30.918Z,22.82
2023-02-13T10:36:15.554Z,33.74
2023-02-13T10:37:02.797Z,33.74
2023-02-13T10:37:45.343Z,27.69
2023-02-13T10:38:30.492Z,31.72
2023-02-13T10:39:15.803Z,21.81
2023-02-13T10:40:00.764Z,25.77
2023-02-13T10:40:45.735Z,31.64
2023-02-13T10:41:30.418Z,22.80
2023-02-13T10:42:15.808Z,21.75
2023-02-13T10:43:00.941Z,24.78
2023-02-13T10:43:46.692Z,24.78
2023-02-13T10:44:31.214Z,20.82
2023-02-13T10:45:16.201Z,28.71
2023-02-13T10:46:01.494Z,27.72
2023-02-13T10:46:46.341Z,28.71
2023-02-13T10:47:30.766Z,29.70
2023-02-13T10:48:16.358Z,30.69
2023-02-13T10:49:01.310Z,30.69
2023-02-13T10:49:46.419Z,33.66
2023-02-13T10:50:31.198Z,27.72
2023-02-13T10:51:16.258Z,26.70
2023-02-13T10:52:01.099Z,28.59
2023-02-13T10:52:46.700Z,30.65
2023-02-13T10:53:31.051Z,25.63
2023-02-13T10:54:16.255Z,35.60
2023-02-13T10:55:04.197Z,35.60
2023-02-13T10:55:51.389Z,35.60
2023-02-13T10:56:31.844Z,35.60
2023-02-13T10:57:17.025Z,13.84
2023-02-13T10:58:01.704Z,37.58
2023-02-13T10:58:47.201Z,82.08
2023-02-13T10:59:31.981Z,25.71
2023-02-13T11:00:17.084Z,13.82
2023-02-13T11:01:01.939Z,8.90
2023-02-13T11:01:47.109Z,11.87
2023-02-13T11:02:32.587Z,38.57
2023-02-13T11:03:17.259Z,24.69
2023-02-13T11:04:02.612Z,36.54
2023-02-13T11:04:47.602Z,27.65
2023-02-13T11:05:33.089Z,23.70
2023-02-13T11:06:17.535Z,22.71
2023-02-13T11:07:02.515Z,31.60
2023-02-13T11:07:47.332Z,23.73
2023-02-13T11:08:32.755Z,32.63
2023-02-13T11:09:18.073Z,32.63
2023-02-13T11:10:02.975Z,32.63
2023-02-13T11:10:48.470Z,32.63
2023-02-13T11:11:32.468Z,38.57
2023-02-13T11:12:18.023Z,38.57
2023-02-13T11:13:03.353Z,24.65
2023-02-13T11:13:48.595Z,21.75
2023-02-13T11:14:33.091Z,17.77
2023-02-13T11:15:17.746Z,17.77
2023-02-13T11:16:03.198Z,24.72
2023-02-13T11:16:48.305Z,21.65
2023-02-13T11:17:33.186Z,19.78
2023-02-13T11:18:18.719Z,22.71
2023-02-13T11:19:03.222Z,21.75
2023-02-13T11:19:49.239Z,21.75
2023-02-13T11:20:33.516Z,19.75
2023-02-13T11:21:19.419Z,19.75
2023-02-13T11:22:04.422Z,19.75
2023-02-13T11:22:49.014Z,17.77
2023-02-13T11:23:33.957Z,17.77
2023-02-13T11:24:18.971Z,17.77
2023-02-13T11:25:04.269Z,26.66
2023-02-13T11:25:48.941Z,33.57
2023-02-13T11:26:34.098Z,33.57
2023-02-13T11:27:20.220Z,39.50
2023-02-13T11:28:04.210Z,34.56
2023-02-13T11:28:49.478Z,31.49
2023-02-13T11:29:34.223Z,4.25
2023-02-13T11:30:19.078Z,15.68
2023-02-13T11:31:04.113Z,13.58
2023-02-13T11:31:49.871Z,13.58
2023-02-13T11:32:34.135Z,32.59
2023-02-13T11:33:19.558Z,36.54
2023-02-13T11:34:04.251Z,31.60
2023-02-13T11:34:49.399Z,28.64
2023-02-13T11:35:34.362Z,30.61
2023-02-13T11:36:19.341Z,28.64
2023-02-13T11:37:04.600Z,33.57
2023-02-13T11:37:49.543Z,21.72
2023-02-13T11:38:34.636Z,29.62
2023-02-13T11:39:19.668Z,54.31
2023-02-13T11:40:04.497Z,68.13
2023-02-13T11:40:49.744Z,88.87
2023-02-13T11:41:35.038Z,103.68
2023-02-13T11:42:19.768Z,104.67
2023-02-13T11:43:05.097Z,104.67
2023-02-13T11:43:50.068Z,104.67
2023-02-13T11:44:34.532Z,104.67
2023-02-13T11:45:19.810Z,80.84
2023-02-13T11:46:05.137Z,80.84